Time;durP1;ratioP1;P1;durP2;ratioP2;P2;SDS_P1;SDS_P2;PMS_P1;PMS_P2;Temp;Humidity;BMP_temperature;BMP_pressure;BME280_temperature;BME280_humidity;BME280_pressure;Samples;Min_cycle;Max_cycle;Signal;HPM_P1;HPM_P2
2023/05/24 00:01:27;;;;;;;7.35;1.70;;;;;;;;;;5033369;28;20196;-78
2023/05/24 00:03:53;;;;;;;4.65;1.88;;;;;;;;;;5054294;28;20502;-77
2023/05/24 00:06:19;;;;;;;9.10;2.30;;;;;;;;;;5032842;28;20464;-78
2023/05/24 00:08:45;;;;;;;5.55;1.90;;;;;;;;;;5040723;28;20031;-78
2023/05/24 00:11:11;;;;;;;5.53;1.77;;;;;;;;;;5032497;28;20481;-78
2023/05/24 00:13:36;;;;;;;7.47;1.92;;;;;;;;;;5042639;28;20452;-78
2023/05/24 00:16:02;;;;;;;5.90;2.38;;;;;;;;;;5021309;28;20142;-78
2023/05/24 00:18:30;;;;;;;7.40;2.10;;;;;;;;;;5053227;28;20119;-78
2023/05/24 00:20:57;;;;;;;7.20;2.40;;;;;;;;;;5037334;28;20437;-78
2023/05/24 00:23:23;;;;;;;8.82;2.35;;;;;;;;;;5051941;28;20495;-79
2023/05/24 00:25:48;;;;;;;7.00;2.17;;;;;;;;;;5027714;28;20410;-78
2023/05/24 00:28:14;;;;;;;6.78;1.98;;;;;;;;;;5046530;28;20039;-78
2023/05/24 00:30:39;;;;;;;5.28;1.95;;;;;;;;;;5039753;28;20436;-78
2023/05/24 00:33:05;;;;;;;5.95;1.90;;;;;;;;;;5029690;28;20036;-78
2023/05/24 00:35:30;;;;;;;9.05;2.30;;;;;;;;;;5024855;28;20033;-78
2023/05/24 00:37:55;;;;;;;5.47;2.00;;;;;;;;;;5028595;28;20051;-78
2023/05/24 00:40:21;;;;;;;4.20;1.83;;;;;;;;;;5031965;28;20032;-78
2023/05/24 00:42:46;;;;;;;5.32;1.95;;;;;;;;;;5051747;28;20029;-78
2023/05/24 00:45:12;;;;;;;7.22;1.98;;;;;;;;;;5052344;28;20033;-78
2023/05/24 00:47:37;;;;;;;7.70;2.10;;;;;;;;;;5028622;28;20032;-78
2023/05/24 00:50:03;;;;;;;6.18;1.95;;;;;;;;;;5047440;28;20551;-78
2023/05/24 00:52:28;;;;;;;5.32;1.95;;;;;;;;;;5043084;28;20025;-78
2023/05/24 00:54:54;;;;;;;6.63;2.30;;;;;;;;;;5044870;28;20028;-78
2023/05/24 00:57:20;;;;;;;5.18;2.10;;;;;;;;;;5051798;28;20094;-78
2023/05/24 00:59:46;;;;;;;6.32;1.80;;;;;;;;;;5038531;28;20032;-78
2023/05/24 01:02:11;;;;;;;5.47;1.90;;;;;;;;;;5045649;28;20537;-78
2023/05/24 01:04:37;;;;;;;5.85;2.10;;;;;;;;;;5040801;28;20480;-78
2023/05/24 01:07:38;;;;;;;6.45;1.73;;;;;;;;;;5027296;28;20115;-77
2023/05/24 01:10:06;;;;;;;8.73;2.03;;;;;;;;;;5025797;28;20040;-78
2023/05/24 01:12:40;;;;;;;5.93;1.90;;;;;;;;;;5028857;28;20029;-78
2023/05/24 01:15:42;;;;;;;4.70;1.83;;;;;;;;;;5047936;28;20074;-78
2023/05/24 01:18:16;;;;;;;4.95;1.85;;;;;;;;;;5049083;28;20029;-78
2023/05/24 01:20:42;;;;;;;5.65;1.70;;;;;;;;;;5050628;28;20078;-78
2023/05/24 01:23:27;;;;;;;5.15;1.70;;;;;;;;;;5036380;28;20040;-78
2023/05/24 01:26:17;;;;;;;5.10;1.83;;;;;;;;;;5045009;28;20068;-78
2023/05/24 01:28:43;;;;;;;6.15;1.70;;;;;;;;;;5049632;28;20017;-78
2023/05/24 01:31:11;;;;;;;5.03;1.90;;;;;;;;;;5039321;28;20033;-78
2023/05/24 01:33:41;;;;;;;5.00;2.00;;;;;;;;;;5046973;28;20024;-78
2023/05/24 01:36:07;;;;;;;6.80;1.95;;;;;;;;;;5048520;28;20411;-78
2023/05/24 01:38:32;;;;;;;4.65;1.80;;;;;;;;;;5033527;28;20028;-78
2023/05/24 01:41:08;;;;;;;4.57;1.70;;;;;;;;;;5050051;28;20116;-78
2023/05/24 01:43:39;;;;;;;4.93;1.75;;;;;;;;;;5029433;28;20025;-78
2023/05/24 01:46:21;;;;;;;5.07;1.65;;;;;;;;;;5040956;28;20052;-78
2023/05/24 01:48:55;;;;;;;4.18;1.42;;;;;;;;;;5048287;28;20132;-78
2023/05/24 01:51:23;;;;;;;4.28;1.70;;;;;;;;;;5026396;28;20033;-78
2023/05/24 01:53:51;;;;;;;5.43;1.80;;;;;;;;;;5048250;28;20021;-78
2023/05/24 01:56:19;;;;;;;5.13;1.65;;;;;;;;;;5030479;28;20473;-77
2023/05/24 01:58:46;;;;;;;5.93;2.00;;;;;;;;;;5030922;28;20112;-78
2023/05/24 02:01:12;;;;;;;6.03;1.70;;;;;;;;;;5027453;28;20036;-78
2023/05/24 02:03:38;;;;;;;6.90;2.25;;;;;;;;;;5029771;28;20025;-78
2023/05/24 02:06:05;;;;;;;6.38;1.63;;;;;;;;;;5049423;28;20021;-78
2023/05/24 02:08:30;;;;;;;5.00;1.88;;;;;;;;;;5028510;28;20033;-78
2023/05/24 02:10:55;;;;;;;3.75;1.50;;;;;;;;;;5028931;28;20020;-78
2023/05/24 02:13:21;;;;;;;8.05;1.98;;;;;;;;;;5038830;28;20025;-78
2023/05/24 02:15:46;;;;;;;6.88;1.88;;;;;;;;;;5029118;28;20024;-78
2023/05/24 02:18:12;;;;;;;5.40;2.00;;;;;;;;;;5029081;28;20374;-78
2023/05/24 02:20:38;;;;;;;6.03;1.83;;;;;;;;;;5021193;28;20488;-78
2023/05/24 02:23:04;;;;;;;5.50;1.48;;;;;;;;;;5029213;28;20489;-78
2023/05/24 02:25:30;;;;;;;7.25;2.13;;;;;;;;;;5048311;28;20025;-78
2023/05/24 02:27:57;;;;;;;4.22;1.55;;;;;;;;;;5035711;28;20546;-78
2023/05/24 02:30:22;;;;;;;4.80;1.67;;;;;;;;;;5045455;28;20041;-78
2023/05/24 02:32:48;;;;;;;7.13;2.10;;;;;;;;;;5029277;28;20101;-78
2023/05/24 02:35:13;;;;;;;3.45;1.55;;;;;;;;;;5025798;28;20044;-78
2023/05/24 02:37:39;;;;;;;6.57;1.98;;;;;;;;;;5050025;28;20036;-77
2023/05/24 02:40:05;;;;;;;6.40;2.25;;;;;;;;;;5042948;28;20024;-78
2023/05/24 02:42:31;;;;;;;5.13;1.80;;;;;;;;;;5051194;28;20041;-78
2023/05/24 02:44:56;;;;;;;4.97;1.90;;;;;;;;;;5022602;28;20163;-78
2023/05/24 02:47:21;;;;;;;4.90;2.03;;;;;;;;;;5025806;28;20021;-77
2023/05/24 02:49:47;;;;;;;5.53;1.88;;;;;;;;;;5047251;28;20115;-78
2023/05/24 02:52:13;;;;;;;4.50;1.70;;;;;;;;;;5050660;28;20028;-78
2023/05/24 02:54:39;;;;;;;4.25;2.00;;;;;;;;;;5053170;28;20027;-78
2023/05/24 02:57:05;;;;;;;6.10;2.10;;;;;;;;;;5048067;28;20392;-78
2023/05/24 02:59:32;;;;;;;4.82;1.63;;;;;;;;;;5048491;28;20028;-78
2023/05/24 03:01:57;;;;;;;5.63;1.90;;;;;;;;;;5050349;28;20029;-78
2023/05/24 03:04:23;;;;;;;6.35;2.28;;;;;;;;;;5049599;28;20033;-78
2023/05/24 03:06:48;;;;;;;5.53;1.70;;;;;;;;;;5044808;28;20033;-78
2023/05/24 03:09:15;;;;;;;5.90;1.70;;;;;;;;;;5044501;28;20064;-78
2023/05/24 03:11:41;;;;;;;4.78;1.80;;;;;;;;;;5048037;28;20032;-78
2023/05/24 03:14:08;;;;;;;5.25;2.05;;;;;;;;;;5025617;28;20047;-77
2023/05/24 03:16:34;;;;;;;5.05;2.00;;;;;;;;;;5041442;28;20120;-78
2023/05/24 03:18:59;;;;;;;4.90;1.85;;;;;;;;;;5052860;28;20482;-78
2023/05/24 03:21:25;;;;;;;6.47;1.80;;;;;;;;;;5043162;28;20032;-78
2023/05/24 03:23:50;;;;;;;4.63;2.00;;;;;;;;;;5043398;28;20066;-78
2023/05/24 03:26:17;;;;;;;6.03;2.05;;;;;;;;;;5033384;28;20032;-78
2023/05/24 03:28:44;;;;;;;4.68;1.88;;;;;;;;;;5046078;28;20028;-77
2023/05/24 03:31:10;;;;;;;5.45;1.95;;;;;;;;;;5048784;28;20024;-78
2023/05/24 03:33:36;;;;;;;5.53;2.03;;;;;;;;;;5031223;28;20032;-78
2023/05/24 03:36:03;;;;;;;6.45;2.40;;;;;;;;;;5034062;28;20030;-78
2023/05/24 03:38:28;;;;;;;6.47;2.58;;;;;;;;;;5051807;28;20492;-78
2023/05/24 03:40:53;;;;;;;5.63;2.20;;;;;;;;;;5048899;28;20033;-78
2023/05/24 03:43:20;;;;;;;4.65;2.03;;;;;;;;;;5041635;28;20037;-78
2023/05/24 03:45:45;;;;;;;6.40;2.20;;;;;;;;;;5031297;28;20021;-78
2023/05/24 03:48:10;;;;;;;7.03;2.10;;;;;;;;;;5044835;28;20035;-78
2023/05/24 03:50:36;;;;;;;5.03;1.77;;;;;;;;;;5049548;28;20424;-77
2023/05/24 03:53:01;;;;;;;5.35;2.15;;;;;;;;;;5050858;28;20029;-78
2023/05/24 03:55:26;;;;;;;7.22;2.42;;;;;;;;;;5033175;28;20135;-77
2023/05/24 03:57:52;;;;;;;5.57;2.08;;;;;;;;;;5028460;28;20161;-78
2023/05/24 04:00:17;;;;;;;7.45;2.63;;;;;;;;;;5048267;28;20032;-78
2023/05/24 04:02:43;;;;;;;6.55;2.17;;;;;;;;;;5051138;28;20025;-77
2023/05/24 04:05:09;;;;;;;6.45;2.30;;;;;;;;;;5022892;28;20033;-78
2023/05/24 04:07:38;;;;;;;5.40;2.17;;;;;;;;;;5031236;28;20049;-77
2023/05/24 04:10:07;;;;;;;5.22;1.83;;;;;;;;;;5048763;28;20053;-78
2023/05/24 04:12:33;;;;;;;4.28;2.15;;;;;;;;;;5031806;28;20048;-78
2023/05/24 04:14:59;;;;;;;7.00;2.20;;;;;;;;;;5050148;28;20033;-78
2023/05/24 04:17:25;;;;;;;5.63;2.08;;;;;;;;;;5030816;28;20020;-78
2023/05/24 04:19:51;;;;;;;5.28;2.05;;;;;;;;;;5031937;28;20033;-78
2023/05/24 04:22:19;;;;;;;5.35;1.85;;;;;;;;;;5031257;28;20131;-78
2023/05/24 04:24:45;;;;;;;8.07;2.47;;;;;;;;;;5023540;28;20526;-78
2023/05/24 04:27:11;;;;;;;9.50;2.72;;;;;;;;;;5033613;28;20033;-78
2023/05/24 04:29:38;;;;;;;7.32;2.50;;;;;;;;;;5031298;28;20025;-78
2023/05/24 04:32:05;;;;;;;7.00;2.30;;;;;;;;;;5044190;28;20060;-78
2023/05/24 04:34:32;;;;;;;6.75;2.45;;;;;;;;;;5050386;28;20078;-78
2023/05/24 04:36:58;;;;;;;6.85;2.30;;;;;;;;;;5025912;28;20028;-78
2023/05/24 04:39:24;;;;;;;10.85;2.15;;;;;;;;;;5050497;28;20021;-78
2023/05/24 04:41:50;;;;;;;7.53;2.28;;;;;;;;;;5050064;28;20366;-78
2023/05/24 04:44:16;;;;;;;6.53;2.40;;;;;;;;;;5041321;28;20044;-78
2023/05/24 04:46:41;;;;;;;6.50;2.38;;;;;;;;;;5041786;28;20710;-78
2023/05/24 04:49:07;;;;;;;8.60;2.78;;;;;;;;;;5033674;28;20640;-78
2023/05/24 04:51:33;;;;;;;5.95;2.20;;;;;;;;;;5027710;28;20394;-78
2023/05/24 04:54:00;;;;;;;7.13;2.45;;;;;;;;;;5031960;28;20029;-78
2023/05/24 04:56:25;;;;;;;7.85;2.30;;;;;;;;;;5050921;28;20032;-78
2023/05/24 04:58:51;;;;;;;9.60;2.60;;;;;;;;;;5043904;28;20021;-78
2023/05/24 05:01:16;;;;;;;7.60;2.22;;;;;;;;;;5042459;28;20024;-78
2023/05/24 05:03:43;;;;;;;6.25;2.47;;;;;;;;;;5046960;28;20021;-78
2023/05/24 05:06:09;;;;;;;6.30;2.40;;;;;;;;;;5048606;28;20057;-78
2023/05/24 05:08:34;;;;;;;9.40;3.10;;;;;;;;;;5030593;28;20563;-78
2023/05/24 05:11:00;;;;;;;6.22;2.30;;;;;;;;;;5051491;28;20075;-77
2023/05/24 05:13:25;;;;;;;8.50;2.58;;;;;;;;;;5051749;28;20071;-78
2023/05/24 05:15:51;;;;;;;8.52;2.60;;;;;;;;;;5049989;28;20029;-78
2023/05/24 05:18:16;;;;;;;10.57;3.08;;;;;;;;;;5028245;28;20116;-78
2023/05/24 05:20:42;;;;;;;9.95;3.20;;;;;;;;;;5053116;28;20029;-77
2023/05/24 05:23:07;;;;;;;6.47;2.55;;;;;;;;;;5038154;28;20045;-78
2023/05/24 05:25:33;;;;;;;9.63;3.15;;;;;;;;;;5035113;28;20016;-78
2023/05/24 05:27:58;;;;;;;11.55;3.25;;;;;;;;;;5030302;28;20025;-78
2023/05/24 05:30:23;;;;;;;12.20;3.47;;;;;;;;;;5046258;28;20040;-78
2023/05/24 05:32:49;;;;;;;10.32;2.80;;;;;;;;;;5048933;28;20033;-78
2023/05/24 05:35:14;;;;;;;8.80;3.85;;;;;;;;;;5023532;28;20055;-78
2023/05/24 05:37:40;;;;;;;10.70;3.40;;;;;;;;;;5023575;28;20025;-78
2023/05/24 05:40:06;;;;;;;7.78;3.20;;;;;;;;;;5030196;28;20547;-77
2023/05/24 05:42:31;;;;;;;10.50;3.47;;;;;;;;;;5032006;28;20477;-78
2023/05/24 05:44:56;;;;;;;9.95;3.80;;;;;;;;;;5025889;28;20039;-78
2023/05/24 05:47:22;;;;;;;10.52;3.60;;;;;;;;;;5039336;28;20119;-78
2023/05/24 05:49:47;;;;;;;11.50;3.50;;;;;;;;;;5040372;28;20473;-77
2023/05/24 05:52:13;;;;;;;11.20;3.78;;;;;;;;;;5047675;28;20036;-77
2023/05/24 05:54:38;;;;;;;9.15;3.28;;;;;;;;;;5042418;28;20025;-78
2023/05/24 05:57:04;;;;;;;11.05;3.55;;;;;;;;;;5023935;28;20120;-78
2023/05/24 05:59:29;;;;;;;14.98;3.88;;;;;;;;;;5019824;28;20036;-78
2023/05/24 06:01:54;;;;;;;13.30;3.28;;;;;;;;;;5041783;28;20037;-78
2023/05/24 06:04:20;;;;;;;9.63;3.15;;;;;;;;;;5041482;28;20017;-78
2023/05/24 06:06:48;;;;;;;12.25;3.67;;;;;;;;;;5031737;28;20025;-78
2023/05/24 06:09:14;;;;;;;13.10;4.35;;;;;;;;;;5027645;28;20048;-78
2023/05/24 06:11:43;;;;;;;11.25;3.70;;;;;;;;;;5050644;28;20400;-78
2023/05/24 06:14:10;;;;;;;12.25;3.38;;;;;;;;;;5035293;28;20464;-77
2023/05/24 06:16:40;;;;;;;10.25;2.90;;;;;;;;;;5047706;28;20021;-78
2023/05/24 06:19:06;;;;;;;12.30;4.00;;;;;;;;;;5045034;28;20108;-77
2023/05/24 06:21:32;;;;;;;8.32;2.83;;;;;;;;;;5027009;28;20120;-78
2023/05/24 06:23:58;;;;;;;10.15;3.05;;;;;;;;;;5045606;28;20024;-77
2023/05/24 06:26:25;;;;;;;11.25;3.60;;;;;;;;;;5046091;28;20029;-77
2023/05/24 06:28:51;;;;;;;11.60;3.67;;;;;;;;;;5046740;28;20032;-77
2023/05/24 06:31:17;;;;;;;10.45;3.47;;;;;;;;;;5035597;28;20021;-78
2023/05/24 06:33:43;;;;;;;11.48;3.80;;;;;;;;;;5029755;28;20413;-78
2023/05/24 06:36:08;;;;;;;11.48;3.65;;;;;;;;;;5027691;28;20036;-78
2023/05/24 06:38:34;;;;;;;14.13;4.43;;;;;;;;;;5028910;28;20421;-77
2023/05/24 06:41:00;;;;;;;12.85;4.50;;;;;;;;;;5046869;28;20033;-77
2023/05/24 06:43:25;;;;;;;14.48;4.47;;;;;;;;;;5044570;28;20088;-78
2023/05/24 06:45:51;;;;;;;11.02;4.10;;;;;;;;;;5049768;28;20040;-78
2023/05/24 06:48:16;;;;;;;12.48;4.20;;;;;;;;;;5046127;28;20105;-78
2023/05/24 06:50:42;;;;;;;11.77;4.13;;;;;;;;;;5035346;28;20033;-77
2023/05/24 06:53:08;;;;;;;11.77;4.03;;;;;;;;;;5049880;28;20024;-78
2023/05/24 06:55:34;;;;;;;8.75;3.70;;;;;;;;;;5050585;28;20497;-78
2023/05/24 06:57:59;;;;;;;11.60;3.60;;;;;;;;;;5031850;28;20048;-78
2023/05/24 07:00:26;;;;;;;13.20;3.13;;;;;;;;;;5033680;28;20032;-78
2023/05/24 07:02:51;;;;;;;10.50;3.33;;;;;;;;;;5049626;28;20033;-78
2023/05/24 07:05:17;;;;;;;12.80;2.72;;;;;;;;;;5033637;28;20022;-78
2023/05/24 07:07:43;;;;;;;11.48;2.70;;;;;;;;;;5052069;28;20029;-78
2023/05/24 07:10:10;;;;;;;9.15;3.03;;;;;;;;;;5052440;28;20154;-78
2023/05/24 07:12:36;;;;;;;12.35;3.15;;;;;;;;;;5034781;28;20067;-78
2023/05/24 07:15:07;;;;;;;10.93;3.33;;;;;;;;;;5031847;28;20028;-78
2023/05/24 07:17:32;;;;;;;7.53;2.90;;;;;;;;;;5038824;28;20111;-78
2023/05/24 07:20:00;;;;;;;11.02;2.85;;;;;;;;;;5037793;28;20459;-78
2023/05/24 07:22:27;;;;;;;11.15;2.95;;;;;;;;;;5053225;28;20444;-78
2023/05/24 07:24:53;;;;;;;14.20;3.47;;;;;;;;;;5033140;28;20057;-79
2023/05/24 07:27:18;;;;;;;10.65;2.80;;;;;;;;;;5049299;28;20507;-78
2023/05/24 07:29:43;;;;;;;13.10;3.13;;;;;;;;;;5047101;28;20534;-78
2023/05/24 07:32:09;;;;;;;6.78;2.60;;;;;;;;;;5049128;28;20021;-78
2023/05/24 07:34:34;;;;;;;7.80;2.55;;;;;;;;;;5029554;28;20060;-78
2023/05/24 07:37:00;;;;;;;12.18;2.55;;;;;;;;;;5052050;28;20039;-78
2023/05/24 07:39:26;;;;;;;7.68;2.55;;;;;;;;;;5032872;28;20481;-78
2023/05/24 07:41:53;;;;;;;10.52;3.17;;;;;;;;;;5035748;28;20021;-78
2023/05/24 07:44:18;;;;;;;12.80;2.83;;;;;;;;;;5019632;28;20675;-77
2023/05/24 07:46:44;;;;;;;10.55;3.08;;;;;;;;;;5033365;28;20031;-78
2023/05/24 07:49:09;;;;;;;11.52;3.10;;;;;;;;;;5012162;28;20158;-78
2023/05/24 07:51:35;;;;;;;7.20;2.50;;;;;;;;;;5014132;28;20025;-78
2023/05/24 07:54:01;;;;;;;10.00;2.97;;;;;;;;;;5024722;28;20025;-78
2023/05/24 07:56:26;;;;;;;8.77;2.80;;;;;;;;;;5027075;28;20458;-78
2023/05/24 07:58:52;;;;;;;9.13;2.97;;;;;;;;;;5023688;28;20075;-78
2023/05/24 08:01:18;;;;;;;10.77;2.67;;;;;;;;;;5008291;28;20393;-78
2023/05/24 08:03:44;;;;;;;7.97;2.35;;;;;;;;;;5012887;28;20025;-78
2023/05/24 08:06:11;;;;;;;10.80;2.42;;;;;;;;;;5024364;28;20029;-78
2023/05/24 08:08:37;;;;;;;9.30;2.40;;;;;;;;;;5008836;28;20513;-78
2023/05/24 08:11:03;;;;;;;8.98;2.13;;;;;;;;;;5020293;28;20120;-78
2023/05/24 08:13:28;;;;;;;6.85;2.33;;;;;;;;;;5030264;28;20493;-78
2023/05/24 08:15:53;;;;;;;9.43;2.75;;;;;;;;;;5028798;28;20123;-78
2023/05/24 08:18:18;;;;;;;11.75;3.10;;;;;;;;;;5031859;28;20374;-78
2023/05/24 08:20:44;;;;;;;9.63;2.80;;;;;;;;;;5026380;28;20557;-78
2023/05/24 08:23:10;;;;;;;11.63;3.00;;;;;;;;;;5024576;28;20533;-78
2023/05/24 08:25:35;;;;;;;6.47;2.67;;;;;;;;;;5026521;28;20462;-79
2023/05/24 08:28:01;;;;;;;9.77;2.53;;;;;;;;;;5010139;28;20030;-78
2023/05/24 08:30:26;;;;;;;9.52;2.45;;;;;;;;;;5019860;28;20028;-78
2023/05/24 08:32:52;;;;;;;9.27;2.35;;;;;;;;;;5027126;28;20520;-78
2023/05/24 08:35:17;;;;;;;10.82;2.53;;;;;;;;;;5027258;28;20465;-80
2023/05/24 08:37:42;;;;;;;7.85;2.85;;;;;;;;;;5007680;28;20036;-80
2023/05/24 08:40:11;;;;;;;8.27;2.50;;;;;;;;;;5025918;28;20033;-79
2023/05/24 08:42:40;;;;;;;10.40;2.40;;;;;;;;;;5035564;28;20112;-80
2023/05/24 08:45:13;;;;;;;8.85;2.42;;;;;;;;;;5028431;28;20124;-78
2023/05/24 08:47:39;;;;;;;8.52;2.30;;;;;;;;;;5018559;28;20040;-79
2023/05/24 08:50:07;;;;;;;7.63;2.28;;;;;;;;;;5052507;28;20598;-78
2023/05/24 08:52:32;;;;;;;9.73;2.38;;;;;;;;;;5048533;28;20109;-80
2023/05/24 08:54:59;;;;;;;10.25;2.75;;;;;;;;;;5029001;28;20128;-80
2023/05/24 08:57:29;;;;;;;9.07;2.58;;;;;;;;;;5043694;28;20021;-79
2023/05/24 08:59:55;;;;;;;7.60;2.85;;;;;;;;;;5030080;28;20115;-80
2023/05/24 09:02:21;;;;;;;9.93;2.67;;;;;;;;;;5026722;28;20103;-80
2023/05/24 09:04:48;;;;;;;6.90;2.25;;;;;;;;;;5032521;28;20034;-80
2023/05/24 09:07:16;;;;;;;11.48;2.33;;;;;;;;;;5045019;28;20036;-79
2023/05/24 09:09:45;;;;;;;8.02;2.40;;;;;;;;;;5025804;28;20044;-80
2023/05/24 09:12:14;;;;;;;10.77;2.70;;;;;;;;;;5045510;28;20126;-80
2023/05/24 09:14:45;;;;;;;6.60;2.10;;;;;;;;;;5026077;28;20037;-78
2023/05/24 09:17:14;;;;;;;14.60;2.72;;;;;;;;;;5017999;28;20495;-78
2023/05/24 09:19:43;;;;;;;8.23;2.15;;;;;;;;;;5031770;28;20063;-79
2023/05/24 09:22:09;;;;;;;6.25;2.55;;;;;;;;;;5055921;28;20441;-79
2023/05/24 09:24:51;;;;;;;5.18;2.28;;;;;;;;;;5054568;28;20436;-80
2023/05/24 09:27:21;;;;;;;7.43;2.17;;;;;;;;;;5042458;28;20469;-79
2023/05/24 09:29:52;;;;;;;8.93;2.22;;;;;;;;;;5043624;28;20021;-79
2023/05/24 09:32:20;;;;;;;9.50;2.42;;;;;;;;;;5031757;28;20087;-79
2023/05/24 09:34:46;;;;;;;9.23;2.58;;;;;;;;;;5030041;28;20113;-79
2023/05/24 09:37:17;;;;;;;7.55;2.28;;;;;;;;;;5029993;28;20111;-80
2023/05/24 09:39:47;;;;;;;8.20;2.30;;;;;;;;;;5023852;28;20033;-79
2023/05/24 09:42:17;;;;;;;7.93;2.47;;;;;;;;;;5029021;28;20041;-80
2023/05/24 09:44:43;;;;;;;8.02;2.50;;;;;;;;;;5045852;28;20028;-80
2023/05/24 09:47:08;;;;;;;8.90;2.50;;;;;;;;;;5046222;28;20381;-79
2023/05/24 09:49:37;;;;;;;9.00;2.60;;;;;;;;;;5043786;28;20025;-79
2023/05/24 09:52:02;;;;;;;11.13;2.67;;;;;;;;;;5037010;28;20024;-79
2023/05/24 09:54:31;;;;;;;8.43;2.40;;;;;;;;;;5045515;28;20112;-79
2023/05/24 09:57:00;;;;;;;9.15;2.55;;;;;;;;;;5030911;28;20025;-79
2023/05/24 09:59:26;;;;;;;7.03;2.20;;;;;;;;;;5030526;28;20466;-79
2023/05/24 10:02:05;;;;;;;10.60;2.53;;;;;;;;;;5030979;28;20044;-79
2023/05/24 10:04:34;;;;;;;10.70;2.17;;;;;;;;;;5054807;28;20439;-79
2023/05/24 10:07:01;;;;;;;9.80;2.40;;;;;;;;;;5044307;28;20033;-79
2023/05/24 10:09:32;;;;;;;7.18;2.45;;;;;;;;;;5032913;28;20025;-79
2023/05/24 10:12:05;;;;;;;6.53;1.67;;;;;;;;;;5044308;28;20044;-80
2023/05/24 10:14:35;;;;;;;9.07;2.33;;;;;;;;;;5051670;28;20079;-79
2023/05/24 10:17:05;;;;;;;6.28;2.13;;;;;;;;;;5022151;28;20511;-81
2023/05/24 10:19:36;;;;;;;10.52;2.22;;;;;;;;;;5049619;28;20037;-81
2023/05/24 10:22:06;;;;;;;8.13;2.15;;;;;;;;;;5040715;28;20508;-81
2023/05/24 10:24:35;;;;;;;8.88;2.45;;;;;;;;;;5052856;28;20021;-81
2023/05/24 10:27:06;;;;;;;9.32;2.03;;;;;;;;;;5033852;28;20104;-81
2023/05/24 10:29:50;;;;;;;8.02;2.28;;;;;;;;;;5030541;28;20495;-81
2023/05/24 10:32:18;;;;;;;5.70;1.98;;;;;;;;;;5035396;28;20031;-81
2023/05/24 10:34:45;;;;;;;7.75;2.28;;;;;;;;;;5054444;28;20520;-81
2023/05/24 10:37:10;;;;;;;10.30;2.50;;;;;;;;;;5049223;28;20051;-81
2023/05/24 10:39:36;;;;;;;5.07;1.98;;;;;;;;;;5052370;28;20033;-81
2023/05/24 10:42:03;;;;;;;9.93;2.47;;;;;;;;;;5029858;28;20028;-81
2023/05/24 10:44:30;;;;;;;6.63;2.05;;;;;;;;;;5028782;28;20429;-80
2023/05/24 10:47:18;;;;;;;6.38;2.20;;;;;;;;;;5022885;28;20393;-81
2023/05/24 10:49:53;;;;;;;8.38;2.22;;;;;;;;;;5030357;28;20025;-80
2023/05/24 10:52:18;;;;;;;6.18;2.40;;;;;;;;;;5031117;28;20039;-81
2023/05/24 10:55:03;;;;;;;9.75;2.28;;;;;;;;;;5028949;28;20021;-81
2023/05/24 10:57:30;;;;;;;8.95;2.42;;;;;;;;;;5041742;28;20058;-81
2023/05/24 10:59:57;;;;;;;7.72;2.17;;;;;;;;;;5027924;28;20030;-81
2023/05/24 11:02:27;;;;;;;8.57;2.60;;;;;;;;;;5030424;28;20476;-82
2023/05/24 11:04:52;;;;;;;6.45;2.17;;;;;;;;;;5058766;28;20031;-82
2023/05/24 11:07:18;;;;;;;9.35;2.50;;;;;;;;;;5033701;28;20029;-81
2023/05/24 11:09:51;;;;;;;7.85;2.63;;;;;;;;;;5032937;28;20021;-81
2023/05/24 11:12:17;;;;;;;6.47;2.08;;;;;;;;;;5042369;28;20031;-81
2023/05/24 11:14:48;;;;;;;11.50;2.65;;;;;;;;;;5049070;28;20036;-81
2023/05/24 11:17:14;;;;;;;9.02;2.28;;;;;;;;;;5047218;28;20535;-81
2023/05/24 11:19:51;;;;;;;9.60;2.72;;;;;;;;;;5049699;28;20017;-82
2023/05/24 11:22:18;;;;;;;7.10;2.25;;;;;;;;;;5047548;28;20119;-81
2023/05/24 11:24:44;;;;;;;5.22;1.83;;;;;;;;;;5049875;28;20021;-81
2023/05/24 11:27:11;;;;;;;9.70;2.28;;;;;;;;;;5030708;28;20075;-81
2023/05/24 11:29:41;;;;;;;8.00;2.28;;;;;;;;;;5039668;28;20040;-79
2023/05/24 11:32:06;;;;;;;8.07;1.92;;;;;;;;;;5043769;28;20025;-79
2023/05/24 11:34:33;;;;;;;8.30;3.17;;;;;;;;;;5047807;28;20025;-79
2023/05/24 11:37:00;;;;;;;7.07;2.67;;;;;;;;;;5035829;28;20046;-81
2023/05/24 11:39:35;;;;;;;8.30;2.30;;;;;;;;;;5048652;28;20036;-81
2023/05/24 11:42:03;;;;;;;10.45;2.10;;;;;;;;;;5049339;28;20029;-80
2023/05/24 11:44:31;;;;;;;9.98;2.03;;;;;;;;;;5047705;28;20466;-81
2023/05/24 11:47:00;;;;;;;8.13;2.67;;;;;;;;;;5027330;28;20029;-79
2023/05/24 11:49:26;;;;;;;11.60;2.78;;;;;;;;;;5050096;28;20036;-78
2023/05/24 11:51:57;;;;;;;7.60;2.13;;;;;;;;;;5032342;28;20555;-79
2023/05/24 11:54:23;;;;;;;7.95;2.58;;;;;;;;;;5036139;28;20408;-79
2023/05/24 11:56:48;;;;;;;6.95;2.20;;;;;;;;;;5048643;28;20443;-82
2023/05/24 11:59:21;;;;;;;5.75;2.13;;;;;;;;;;5046376;28;20080;-81
2023/05/24 12:01:47;;;;;;;7.80;2.33;;;;;;;;;;5027279;28;20016;-82
2023/05/24 12:04:12;;;;;;;8.13;1.95;;;;;;;;;;5046176;28;20538;-82
2023/05/24 12:06:40;;;;;;;7.38;2.20;;;;;;;;;;5026665;28;20507;-81
2023/05/24 12:09:08;;;;;;;8.80;2.70;;;;;;;;;;5028164;28;20028;-79
2023/05/24 12:11:41;;;;;;;9.38;2.33;;;;;;;;;;5046317;28;20021;-79
2023/05/24 12:14:13;;;;;;;9.18;2.40;;;;;;;;;;5034105;28;20469;-79
2023/05/24 12:16:41;;;;;;;9.73;2.55;;;;;;;;;;5037270;28;20033;-82
2023/05/24 12:19:06;;;;;;;7.40;2.42;;;;;;;;;;5026650;28;20062;-81
2023/05/24 12:21:32;;;;;;;7.95;2.08;;;;;;;;;;5047591;28;20032;-81
2023/05/24 12:24:08;;;;;;;9.55;2.17;;;;;;;;;;5047656;28;20025;-81
2023/05/24 12:26:41;;;;;;;8.55;2.53;;;;;;;;;;5031687;28;20055;-82
2023/05/24 12:29:06;;;;;;;7.00;2.10;;;;;;;;;;5030207;28;20389;-82
2023/05/24 12:31:33;;;;;;;6.03;2.00;;;;;;;;;;5050102;28;20031;-81
2023/05/24 12:33:58;;;;;;;9.57;2.30;;;;;;;;;;5027972;28;20097;-81
2023/05/24 12:36:23;;;;;;;6.53;2.05;;;;;;;;;;5042394;28;20029;-82
2023/05/24 12:38:49;;;;;;;7.65;2.13;;;;;;;;;;5036508;28;20036;-80
2023/05/24 12:41:14;;;;;;;8.20;2.30;;;;;;;;;;5033500;28;20107;-81
2023/05/24 12:43:43;;;;;;;6.22;2.15;;;;;;;;;;5025079;28;20054;-81
2023/05/24 12:46:08;;;;;;;7.38;2.28;;;;;;;;;;5029523;28;20017;-81
2023/05/24 12:48:34;;;;;;;7.50;2.25;;;;;;;;;;5029244;28;20385;-82
2023/05/24 12:51:00;;;;;;;5.65;2.38;;;;;;;;;;5048981;28;20033;-81
2023/05/24 12:53:26;;;;;;;8.63;2.40;;;;;;;;;;5017681;28;20025;-82
2023/05/24 12:55:54;;;;;;;8.98;2.30;;;;;;;;;;5028791;28;20043;-81
2023/05/24 12:58:20;;;;;;;7.47;2.13;;;;;;;;;;5040789;28;20031;-82
2023/05/24 13:00:48;;;;;;;13.13;2.78;;;;;;;;;;5041614;28;20017;-82
2023/05/24 13:03:14;;;;;;;8.13;2.40;;;;;;;;;;5028734;28;20508;-81
2023/05/24 13:05:40;;;;;;;6.43;2.20;;;;;;;;;;5028929;28;20060;-82
2023/05/24 13:08:05;;;;;;;7.60;1.98;;;;;;;;;;5032293;28;20177;-80
2023/05/24 13:10:31;;;;;;;7.80;2.17;;;;;;;;;;5043263;28;20036;-82
2023/05/24 13:12:56;;;;;;;7.40;2.53;;;;;;;;;;5047090;28;20025;-82
2023/05/24 13:15:22;;;;;;;10.20;2.40;;;;;;;;;;5040141;28;20024;-82
2023/05/24 13:17:48;;;;;;;6.03;2.10;;;;;;;;;;5053384;28;20461;-81
2023/05/24 13:20:14;;;;;;;6.72;2.35;;;;;;;;;;5030876;28;20025;-81
2023/05/24 13:22:41;;;;;;;5.63;1.90;;;;;;;;;;5051672;28;20503;-81
2023/05/24 13:25:07;;;;;;;7.85;2.47;;;;;;;;;;5034664;28;20029;-81
2023/05/24 13:27:33;;;;;;;8.27;2.45;;;;;;;;;;5043872;28;20482;-81
2023/05/24 13:29:58;;;;;;;8.15;2.42;;;;;;;;;;5030936;28;20104;-81
2023/05/24 13:32:24;;;;;;;7.38;2.17;;;;;;;;;;5035420;28;20100;-81
2023/05/24 13:34:49;;;;;;;5.32;2.00;;;;;;;;;;5024678;28;20032;-81
2023/05/24 13:37:15;;;;;;;9.57;2.75;;;;;;;;;;5030067;28;20119;-81
2023/05/24 13:39:41;;;;;;;7.32;2.42;;;;;;;;;;5047634;28;20084;-81
2023/05/24 13:42:07;;;;;;;6.70;2.10;;;;;;;;;;5041537;28;20028;-81
2023/05/24 13:44:33;;;;;;;5.63;1.95;;;;;;;;;;5034459;28;20025;-81
2023/05/24 13:46:59;;;;;;;7.03;2.35;;;;;;;;;;5037685;28;20037;-80
2023/05/24 13:49:24;;;;;;;9.02;2.38;;;;;;;;;;5052449;28;20033;-81
2023/05/24 13:51:51;;;;;;;7.90;2.13;;;;;;;;;;5026175;28;20084;-80
2023/05/24 13:54:16;;;;;;;6.63;2.15;;;;;;;;;;5051315;28;20373;-80
2023/05/24 13:56:43;;;;;;;6.45;2.22;;;;;;;;;;5038091;28;20051;-80
2023/05/24 13:59:10;;;;;;;8.82;2.47;;;;;;;;;;5029899;28;20505;-81
2023/05/24 14:01:36;;;;;;;7.10;2.55;;;;;;;;;;5044426;28;20028;-80
2023/05/24 14:04:03;;;;;;;7.90;2.53;;;;;;;;;;5024593;28;20025;-80
2023/05/24 14:06:28;;;;;;;6.57;2.28;;;;;;;;;;5047251;28;20099;-80
2023/05/24 14:08:54;;;;;;;7.40;2.10;;;;;;;;;;5026837;28;20069;-80
2023/05/24 14:11:21;;;;;;;10.27;2.80;;;;;;;;;;5048784;28;20025;-80
2023/05/24 14:13:47;;;;;;;8.32;2.30;;;;;;;;;;5034239;28;20017;-78
2023/05/24 14:16:12;;;;;;;6.68;2.08;;;;;;;;;;5050856;28;20166;-80
2023/05/24 14:18:37;;;;;;;5.72;2.38;;;;;;;;;;5045884;28;20091;-80
2023/05/24 14:21:03;;;;;;;7.82;2.50;;;;;;;;;;5031816;28;20021;-78
2023/05/24 14:23:30;;;;;;;6.72;2.10;;;;;;;;;;5022071;28;20524;-78
2023/05/24 14:25:56;;;;;;;7.20;2.17;;;;;;;;;;5027211;28;20025;-78
2023/05/24 14:28:22;;;;;;;8.50;2.53;;;;;;;;;;5045489;28;20451;-77
2023/05/24 14:30:47;;;;;;;6.93;2.38;;;;;;;;;;5024576;28;20021;-78
2023/05/24 14:33:13;;;;;;;5.13;2.10;;;;;;;;;;5041404;28;20022;-80
2023/05/24 14:35:38;;;;;;;8.55;2.33;;;;;;;;;;5049814;28;20025;-80
2023/05/24 14:38:08;;;;;;;6.30;2.20;;;;;;;;;;5042103;28;20392;-80
2023/05/24 14:40:35;;;;;;;5.45;2.03;;;;;;;;;;5044295;28;20467;-80